createdAt,value
2023-03-26T00:01:40.920Z,60.89
2023-03-26T00:04:08.508Z,60.62
2023-03-26T00:06:40.016Z,63.49
2023-03-26T00:09:09.692Z,66.90
2023-03-26T00:11:36.823Z,64.27
2023-03-26T00:14:05.877Z,62.85
2023-03-26T00:16:40.615Z,60.01
2023-03-26T00:19:08.390Z,55.38
2023-03-26T00:21:35.517Z,54.56
2023-03-26T00:24:06.652Z,55.57
2023-03-26T00:26:38.802Z,57.35
2023-03-26T00:29:07.221Z,57.97
2023-03-26T00:31:34.684Z,59.00
2023-03-26T00:34:04.054Z,59.64
2023-03-26T00:36:31.515Z,60.54
2023-03-26T00:38:58.672Z,61.06
2023-03-26T00:41:27.213Z,64.46
2023-03-26T00:43:57.125Z,67.25
2023-03-26T00:46:37.550Z,66.34
2023-03-26T00:49:04.633Z,64.18
2023-03-26T00:51:32.241Z,60.90
2023-03-26T00:53:59.358Z,57.52
2023-03-26T00:56:27.062Z,54.26
2023-03-26T00:58:54.172Z,54.70
2023-03-26T01:01:29.274Z,55.81
2023-03-26T01:04:08.957Z,57.07
2023-03-26T01:06:39.755Z,57.64
2023-03-26T01:09:20.266Z,58.65
2023-03-26T01:11:49.069Z,59.67
2023-03-26T01:14:25.467Z,60.65
2023-03-26T01:17:04.434Z,61.38
2023-03-26T01:19:52.538Z,61.95
2023-03-26T01:22:24.837Z,66.48
2023-03-26T01:24:57.015Z,68.70
2023-03-26T01:27:36.191Z,66.64
2023-03-26T01:30:27.809Z,61.02
2023-03-26T01:33:20.836Z,56.34
2023-03-26T01:36:29.388Z,55.70
2023-03-26T01:39:25.611Z,56.99
2023-03-26T01:41:58.725Z,58.78
2023-03-26T01:44:50.741Z,59.35
2023-03-26T01:47:18.802Z,60.49
2023-03-26T01:49:46.017Z,64.01
2023-03-26T01:52:20.086Z,65.37
2023-03-26T01:54:47.733Z,63.98
2023-03-26T01:57:40.012Z,63.73
2023-03-26T02:00:19.787Z,58.90
2023-03-26T02:02:59.459Z,55.52
2023-03-26T02:05:36.090Z,55.32
2023-03-26T02:08:17.069Z,56.66
2023-03-26T02:10:47.796Z,57.94
2023-03-26T02:13:15.680Z,59.72
2023-03-26T02:15:56.186Z,60.32
2023-03-26T02:18:24.440Z,64.15
2023-03-26T02:20:55.966Z,67.63
2023-03-26T02:23:23.399Z,65.88
2023-03-26T02:25:50.564Z,63.61
2023-03-26T02:28:17.965Z,61.74
2023-03-26T02:30:46.328Z,58.13
2023-03-26T02:33:15.998Z,54.65
2023-03-26T02:35:46.372Z,55.21
2023-03-26T02:38:15.014Z,55.95
2023-03-26T02:40:42.256Z,57.47
2023-03-26T02:43:09.503Z,59.54
2023-03-26T02:45:36.577Z,60.98
2023-03-26T02:48:04.156Z,60.76
2023-03-26T02:50:33.240Z,61.50
2023-03-26T02:53:01.162Z,64.94
2023-03-26T02:55:28.822Z,67.36
2023-03-26T02:57:56.852Z,65.66
2023-03-26T03:00:23.955Z,62.90
2023-03-26T03:02:51.099Z,61.51
2023-03-26T03:05:18.772Z,60.30
2023-03-26T03:07:46.999Z,56.83
2023-03-26T03:10:15.804Z,54.52
2023-03-26T03:12:43.675Z,55.56
2023-03-26T03:15:11.850Z,56.27
2023-03-26T03:17:38.958Z,58.42
2023-03-26T03:20:09.563Z,60.06
2023-03-26T03:22:36.972Z,61.21
2023-03-26T03:25:05.887Z,61.48
2023-03-26T03:27:33.115Z,64.82
2023-03-26T03:30:00.197Z,68.60
2023-03-26T03:32:28.036Z,67.08
2023-03-26T03:34:55.319Z,63.08
2023-03-26T03:37:22.357Z,60.42
2023-03-26T03:39:49.642Z,57.48
2023-03-26T03:42:16.824Z,54.99
2023-03-26T03:44:44.171Z,56.12
2023-03-26T03:47:14.089Z,58.15
2023-03-26T03:49:41.639Z,59.00
2023-03-26T03:52:08.922Z,59.63
2023-03-26T03:54:36.698Z,61.68
2023-03-26T03:57:03.948Z,64.27
2023-03-26T03:59:31.372Z,66.42
2023-03-26T04:01:58.770Z,65.81
2023-03-26T04:04:26.455Z,63.31
2023-03-26T04:06:53.429Z,60.42
2023-03-26T04:09:20.882Z,57.32
2023-03-26T04:11:48.279Z,54.80
2023-03-26T04:14:15.373Z,55.23
2023-03-26T04:16:42.602Z,55.87
2023-03-26T04:19:09.799Z,57.21
2023-03-26T04:21:38.056Z,58.75
2023-03-26T04:24:06.443Z,59.77
2023-03-26T04:26:33.375Z,60.59
2023-03-26T04:29:03.960Z,61.09
2023-03-26T04:31:31.587Z,63.97
2023-03-26T04:34:14.290Z,67.12
2023-03-26T04:36:42.949Z,65.25
2023-03-26T04:39:13.649Z,63.28
2023-03-26T04:41:40.828Z,60.44
2023-03-26T04:44:07.766Z,56.83
2023-03-26T04:46:35.370Z,54.52
2023-03-26T04:49:02.571Z,54.77
2023-03-26T04:51:38.724Z,56.20
2023-03-26T04:54:08.461Z,57.81
2023-03-26T04:56:52.141Z,58.50
2023-03-26T04:59:26.668Z,59.58
2023-03-26T05:01:54.558Z,60.74
2023-03-26T05:04:21.628Z,61.70
2023-03-26T05:06:49.064Z,63.97
2023-03-26T05:09:16.679Z,67.12
2023-03-26T05:11:43.881Z,64.37
2023-03-26T05:14:11.484Z,62.53
2023-03-26T05:16:40.004Z,60.76
2023-03-26T05:19:07.411Z,56.22
2023-03-26T05:21:35.193Z,54.12
2023-03-26T05:24:02.657Z,54.82
2023-03-26T05:26:29.927Z,56.74
2023-03-26T05:28:57.281Z,57.82
2023-03-26T05:31:25.085Z,57.74
2023-03-26T05:33:52.858Z,59.13
2023-03-26T05:36:20.316Z,59.69
2023-03-26T05:38:50.289Z,60.62
2023-03-26T05:41:18.208Z,61.29
2023-03-26T05:43:46.461Z,64.01
2023-03-26T05:46:14.532Z,67.09
2023-03-26T05:48:41.885Z,64.67
2023-03-26T05:51:09.664Z,62.86
2023-03-26T05:53:36.770Z,60.58
2023-03-26T05:56:04.780Z,56.58
2023-03-26T05:58:36.769Z,53.91
2023-03-26T06:01:17.147Z,54.63
2023-03-26T06:03:46.156Z,55.97
2023-03-26T06:06:16.516Z,57.79
2023-03-26T06:08:47.495Z,58.81
2023-03-26T06:11:15.265Z,59.11
2023-03-26T06:13:43.371Z,59.73
2023-03-26T06:16:25.979Z,60.55
2023-03-26T06:18:56.653Z,60.69
2023-03-26T06:21:26.000Z,63.83
2023-03-26T06:23:53.607Z,65.95
2023-03-26T06:26:21.645Z,63.01
2023-03-26T06:28:48.767Z,61.14
2023-03-26T06:31:17.661Z,57.17
2023-03-26T06:33:45.374Z,55.13
2023-03-26T06:36:12.383Z,55.77
2023-03-26T06:38:39.780Z,57.46
2023-03-26T06:41:08.154Z,58.50
2023-03-26T06:43:36.749Z,60.19
2023-03-26T06:46:04.852Z,60.47
2023-03-26T06:48:32.240Z,59.94
2023-03-26T06:51:08.950Z,60.56
2023-03-26T06:53:41.973Z,61.59
2023-03-26T06:56:18.897Z,63.56
2023-03-26T06:58:51.387Z,65.38
2023-03-26T07:01:18.626Z,63.87
2023-03-26T07:03:46.147Z,57.97
2023-03-26T07:06:13.512Z,54.27
2023-03-26T07:08:40.784Z,54.73
2023-03-26T07:11:08.023Z,55.80
2023-03-26T07:13:35.469Z,56.45
2023-03-26T07:16:03.108Z,57.05
2023-03-26T07:18:30.440Z,57.45
2023-03-26T07:20:58.052Z,59.35
2023-03-26T07:23:25.712Z,59.77
2023-03-26T07:25:53.365Z,60.19
2023-03-26T07:28:34.593Z,60.82
2023-03-26T07:31:35.095Z,60.86
2023-03-26T07:34:05.665Z,61.17
2023-03-26T07:36:48.794Z,61.07
2023-03-26T07:39:44.968Z,61.26
2023-03-26T07:42:28.709Z,61.70
2023-03-26T07:45:13.144Z,61.58
2023-03-26T07:47:43.222Z,61.41
2023-03-26T07:50:19.128Z,61.20
2023-03-26T07:52:46.972Z,61.04
2023-03-26T07:55:16.064Z,60.75
2023-03-26T07:58:17.621Z,59.88
2023-03-26T08:00:57.512Z,59.56
2023-03-26T08:03:30.864Z,59.27
2023-03-26T08:06:09.065Z,58.99
2023-03-26T08:08:45.999Z,59.33
2023-03-26T08:11:35.035Z,58.94
2023-03-26T08:14:20.272Z,58.85
2023-03-26T08:16:56.650Z,58.84
2023-03-26T08:19:29.516Z,58.88
2023-03-26T08:22:06.913Z,58.57
2023-03-26T08:24:47.827Z,58.23
2023-03-26T08:27:38.537Z,58.49
2023-03-26T08:30:17.593Z,57.57
2023-03-26T08:32:54.354Z,56.90
2023-03-26T08:35:21.654Z,56.58
2023-03-26T08:37:48.569Z,55.87
2023-03-26T08:40:46.434Z,55.27
2023-03-26T08:43:44.374Z,55.00
2023-03-26T08:46:30.931Z,54.39
2023-03-26T08:49:29.679Z,54.40
2023-03-26T08:52:34.530Z,53.89
2023-03-26T08:55:17.118Z,53.33
2023-03-26T08:58:21.758Z,52.76
2023-03-26T09:01:17.531Z,52.82
2023-03-26T09:04:13.666Z,53.22
2023-03-26T09:06:48.695Z,53.12
2023-03-26T09:09:31.273Z,53.40
2023-03-26T09:12:36.191Z,53.33
2023-03-26T09:15:28.479Z,53.23
2023-03-26T09:17:58.584Z,52.90
2023-03-26T09:20:44.146Z,53.04
2023-03-26T09:23:45.471Z,52.60
2023-03-26T09:26:25.358Z,53.14
2023-03-26T09:29:10.540Z,53.09
2023-03-26T09:32:02.830Z,53.11
2023-03-26T09:34:33.277Z,53.02
2023-03-26T09:37:21.900Z,52.82
2023-03-26T09:40:18.875Z,52.86
2023-03-26T09:43:17.181Z,53.35
2023-03-26T09:45:52.902Z,53.56
2023-03-26T09:48:58.514Z,53.31
2023-03-26T09:51:27.739Z,53.35
2023-03-26T09:54:32.351Z,53.17
2023-03-26T09:57:09.021Z,53.13
2023-03-26T09:59:51.944Z,52.97
2023-03-26T10:02:46.234Z,53.07
2023-03-26T10:05:30.451Z,53.31
2023-03-26T10:08:25.418Z,52.88
2023-03-26T10:10:58.652Z,52.83
2023-03-26T10:13:43.979Z,52.56
2023-03-26T10:16:30.139Z,52.05
2023-03-26T10:19:20.311Z,51.51
2023-03-26T10:22:11.981Z,51.60
2023-03-26T10:25:19.740Z,51.17
2023-03-26T10:28:07.820Z,50.87
2023-03-26T10:30:48.771Z,50.99
2023-03-26T10:33:38.458Z,51.19
2023-03-26T10:36:23.372Z,50.78
2023-03-26T10:39:09.599Z,49.66
2023-03-26T10:41:45.975Z,49.41
2023-03-26T10:44:46.055Z,48.86
2023-03-26T10:47:24.970Z,48.70
2023-03-26T10:50:23.124Z,48.69
2023-03-26T10:53:53.164Z,49.15
2023-03-26T10:56:33.273Z,48.21
2023-03-26T10:59:05.987Z,47.98
2023-03-26T11:01:33.323Z,47.99
2023-03-26T11:04:32.562Z,48.38
2023-03-26T11:07:07.500Z,48.82
2023-03-26T11:09:54.335Z,47.38
2023-03-26T11:12:25.798Z,45.88
2023-03-26T11:15:16.543Z,45.48
2023-03-26T11:18:01.973Z,45.28
2023-03-26T11:21:19.770Z,45.00
2023-03-26T11:24:17.403Z,44.90
2023-03-26T11:26:56.173Z,45.41
2023-03-26T11:29:53.664Z,45.36
2023-03-26T11:32:38.590Z,44.80
2023-03-26T11:35:40.540Z,45.00
2023-03-26T11:38:34.032Z,45.23
2023-03-26T11:41:04.203Z,45.35
2023-03-26T11:43:37.723Z,45.38
2023-03-26T11:46:15.103Z,45.05
2023-03-26T11:48:51.332Z,45.32
2023-03-26T11:51:33.502Z,45.83
2023-03-26T11:54:03.406Z,45.97
2023-03-26T11:57:05.594Z,45.63
2023-03-26T11:59:53.152Z,45.92
2023-03-26T12:02:32.930Z,46.41
2023-03-26T12:05:18.852Z,46.13
2023-03-26T12:07:47.240Z,46.05
2023-03-26T12:10:29.443Z,46.23
2023-03-26T12:13:02.546Z,46.55
2023-03-26T12:15:34.246Z,46.52
2023-03-26T12:18:28.964Z,46.73
2023-03-26T12:21:09.227Z,47.19
2023-03-26T12:24:06.423Z,47.26
2023-03-26T12:26:36.878Z,47.78
2023-03-26T12:29:17.888Z,47.82
2023-03-26T12:32:03.641Z,47.74
2023-03-26T12:34:35.685Z,47.91
2023-03-26T12:37:05.077Z,48.04
2023-03-26T12:40:07.134Z,47.97
2023-03-26T12:44:47.214Z,48.01
2023-03-26T12:45:37.972Z,47.92
2023-03-26T12:48:05.781Z,47.50
2023-03-26T12:50:44.639Z,47.07
2023-03-26T12:53:23.515Z,46.50
2023-03-26T12:56:02.235Z,45.87
2023-03-26T12:58:44.378Z,45.62
2023-03-26T13:01:16.259Z,45.41
2023-03-26T13:04:07.196Z,45.45
2023-03-26T13:06:59.260Z,45.48
2023-03-26T13:09:56.400Z,45.31
2023-03-26T13:12:42.224Z,45.16
2023-03-26T13:15:39.204Z,44.93
2023-03-26T13:18:33.340Z,45.14
2023-03-26T13:21:23.843Z,45.14
2023-03-26T13:24:14.227Z,44.94
2023-03-26T13:27:13.626Z,44.93
2023-03-26T13:29:41.130Z,45.15
2023-03-26T13:32:40.559Z,45.12
2023-03-26T13:35:14.247Z,45.35
2023-03-26T13:37:56.321Z,45.42
2023-03-26T13:40:39.507Z,44.94
2023-03-26T13:43:44.444Z,44.58
2023-03-26T13:46:14.342Z,44.63
2023-03-26T13:49:00.419Z,44.95
2023-03-26T13:51:49.213Z,45.04
2023-03-26T13:54:23.849Z,45.06
2023-03-26T13:57:33.568Z,45.58
2023-03-26T14:00:13.078Z,45.33
2023-03-26T14:02:42.435Z,45.50
2023-03-26T14:05:25.323Z,45.42
2023-03-26T14:08:21.924Z,45.47
2023-03-26T14:11:14.712Z,45.98
2023-03-26T14:13:47.606Z,45.94
2023-03-26T14:16:25.966Z,45.58
2023-03-26T14:19:29.808Z,45.59
2023-03-26T14:22:08.480Z,45.31
2023-03-26T14:24:54.818Z,45.51
2023-03-26T14:27:43.523Z,45.71
2023-03-26T14:30:39.967Z,45.83
2023-03-26T14:33:34.745Z,45.97
2023-03-26T14:36:16.170Z,46.01
2023-03-26T14:39:01.672Z,45.92
2023-03-26T14:41:57.281Z,45.40
2023-03-26T14:44:56.806Z,44.88
2023-03-26T14:47:27.591Z,44.84
2023-03-26T14:50:14.559Z,44.48
2023-03-26T14:53:01.263Z,43.72
2023-03-26T14:55:43.958Z,43.62
2023-03-26T14:58:29.762Z,43.64
2023-03-26T15:01:42.032Z,43.77
2023-03-26T15:04:33.565Z,43.98
2023-03-26T15:07:45.248Z,44.06
2023-03-26T15:10:23.029Z,43.87
2023-03-26T15:13:22.254Z,43.78
2023-03-26T15:15:58.405Z,44.00
2023-03-26T15:18:58.961Z,43.82
2023-03-26T15:21:47.842Z,44.28
2023-03-26T15:24:31.382Z,44.54
2023-03-26T15:27:16.963Z,44.62
2023-03-26T15:30:06.880Z,45.03
2023-03-26T15:33:23.062Z,44.83
2023-03-26T15:36:19.815Z,44.92
2023-03-26T15:39:18.120Z,44.74
2023-03-26T15:41:50.319Z,45.12
2023-03-26T15:44:29.407Z,45.06
2023-03-26T15:47:28.631Z,45.15
2023-03-26T15:50:08.835Z,45.43
2023-03-26T15:52:43.296Z,45.40
2023-03-26T15:55:23.414Z,45.64
2023-03-26T15:58:24.322Z,45.75
2023-03-26T16:01:03.240Z,45.95
2023-03-26T16:03:39.453Z,46.34
2023-03-26T16:06:31.388Z,46.85
2023-03-26T16:09:40.960Z,46.78
2023-03-26T16:12:29.210Z,46.80
2023-03-26T16:15:16.872Z,47.00
2023-03-26T16:18:16.378Z,47.14
2023-03-26T16:20:57.500Z,47.01
2023-03-26T16:23:32.330Z,47.04
2023-03-26T16:26:13.377Z,47.00
2023-03-26T16:28:46.003Z,46.73
2023-03-26T16:31:36.918Z,46.79
2023-03-26T16:34:05.618Z,46.84
2023-03-26T16:36:35.027Z,46.95
2023-03-26T16:39:11.860Z,46.93
2023-03-26T16:41:50.559Z,47.58
2023-03-26T16:44:59.280Z,47.16
2023-03-26T16:47:39.011Z,47.09
2023-03-26T16:50:32.973Z,47.31
2023-03-26T16:53:30.187Z,47.35
2023-03-26T16:56:02.904Z,47.15
2023-03-26T16:58:56.562Z,47.18
2023-03-26T17:01:56.927Z,47.43
2023-03-26T17:04:30.802Z,47.47
2023-03-26T17:07:09.135Z,47.60
2023-03-26T17:10:10.046Z,47.84
2023-03-26T17:13:03.199Z,48.09
2023-03-26T17:15:47.377Z,47.92
2023-03-26T17:18:26.610Z,47.99
2023-03-26T17:21:10.157Z,47.67
2023-03-26T17:23:39.081Z,47.55
2023-03-26T17:26:31.726Z,47.30
2023-03-26T17:29:27.644Z,47.35
2023-03-26T17:32:12.158Z,47.21
2023-03-26T17:34:47.343Z,47.44
2023-03-26T17:37:17.379Z,47.91
2023-03-26T17:39:45.743Z,48.26
2023-03-26T17:42:33.522Z,48.48
2023-03-26T17:45:17.849Z,48.70
2023-03-26T17:47:51.741Z,48.93
2023-03-26T17:50:27.682Z,49.05
2023-03-26T17:53:04.089Z,49.80
2023-03-26T17:55:35.210Z,50.38
2023-03-26T17:58:05.435Z,51.30
2023-03-26T18:00:40.683Z,51.16
2023-03-26T18:03:24.523Z,52.14
2023-03-26T18:05:56.854Z,52.48
2023-03-26T18:08:55.367Z,53.10
2023-03-26T18:11:43.683Z,53.99
2023-03-26T18:14:26.721Z,54.72
2023-03-26T18:16:58.966Z,56.30
2023-03-26T18:19:27.219Z,56.19
2023-03-26T18:21:57.927Z,56.31
2023-03-26T18:24:30.553Z,56.61
2023-03-26T18:27:11.993Z,58.03
2023-03-26T18:30:02.819Z,57.87
2023-03-26T18:32:34.068Z,58.69
2023-03-26T18:35:03.290Z,58.69
2023-03-26T18:37:36.426Z,59.35
2023-03-26T18:40:12.503Z,59.92
2023-03-26T18:42:41.696Z,60.67
2023-03-26T18:45:34.051Z,61.06
2023-03-26T18:48:21.690Z,60.63
2023-03-26T18:50:55.042Z,61.12
2023-03-26T18:53:30.021Z,64.79
2023-03-26T18:55:58.471Z,69.70
2023-03-26T18:58:33.118Z,68.29
2023-03-26T19:01:16.942Z,65.41
2023-03-26T19:03:51.396Z,63.95
2023-03-26T19:06:21.234Z,61.53
2023-03-26T19:08:49.044Z,57.00
2023-03-26T19:11:17.892Z,54.92
2023-03-26T19:13:50.888Z,55.14
2023-03-26T19:16:26.065Z,56.30
2023-03-26T19:18:54.167Z,56.49
2023-03-26T19:21:23.533Z,57.79
2023-03-26T19:23:52.599Z,58.85
2023-03-26T19:26:19.843Z,59.85
2023-03-26T19:28:54.559Z,60.16
2023-03-26T19:31:28.129Z,60.33
2023-03-26T19:34:02.567Z,63.47
2023-03-26T19:36:32.751Z,69.24
2023-03-26T19:38:59.653Z,68.73
2023-03-26T19:41:32.576Z,67.39
2023-03-26T19:44:02.000Z,65.52
2023-03-26T19:46:52.873Z,63.54
2023-03-26T19:49:58.080Z,62.41
2023-03-26T19:52:36.916Z,61.73
2023-03-26T19:55:19.099Z,57.27
2023-03-26T19:57:46.279Z,55.14
2023-03-26T20:00:14.748Z,55.53
2023-03-26T20:02:43.406Z,57.11
2023-03-26T20:05:25.967Z,57.92
2023-03-26T20:07:58.677Z,59.16
2023-03-26T20:10:26.359Z,60.40
2023-03-26T20:12:53.656Z,64.44
2023-03-26T20:15:24.729Z,70.52
2023-03-26T20:17:54.859Z,70.73
2023-03-26T20:20:25.006Z,69.36
2023-03-26T20:22:54.139Z,65.75
2023-03-26T20:25:50.220Z,63.96
2023-03-26T20:28:19.400Z,62.74
2023-03-26T20:30:48.468Z,61.45
2023-03-26T20:33:19.490Z,57.67
2023-03-26T20:35:47.492Z,55.33
2023-03-26T20:38:14.715Z,56.42
2023-03-26T20:40:41.816Z,57.90
2023-03-26T20:43:14.081Z,58.83
2023-03-26T20:45:41.118Z,59.62
2023-03-26T20:48:12.143Z,60.94
2023-03-26T20:50:50.482Z,64.81
2023-03-26T20:53:19.262Z,69.58
2023-03-26T20:55:47.961Z,68.54
2023-03-26T20:58:31.530Z,66.61
2023-03-26T21:01:02.563Z,64.69
2023-03-26T21:03:29.997Z,62.75
2023-03-26T21:06:01.280Z,61.90
2023-03-26T21:08:35.610Z,61.75
2023-03-26T21:11:04.978Z,61.29
2023-03-26T21:13:43.983Z,60.89
2023-03-26T21:16:12.428Z,61.04
2023-03-26T21:18:40.331Z,60.36
2023-03-26T21:21:42.072Z,57.68
2023-03-26T21:24:15.064Z,55.20
2023-03-26T21:26:55.395Z,56.38
2023-03-26T21:29:23.175Z,57.41
2023-03-26T21:31:52.170Z,58.88
2023-03-26T21:34:22.517Z,60.06
2023-03-26T21:36:59.798Z,61.30
2023-03-26T21:39:31.085Z,66.46
2023-03-26T21:42:05.436Z,71.13
2023-03-26T21:44:35.978Z,69.71
2023-03-26T21:47:12.007Z,67.61
2023-03-26T21:49:43.626Z,65.24
2023-03-26T21:52:15.230Z,63.38
2023-03-26T21:54:43.414Z,62.47
2023-03-26T21:57:21.621Z,61.43
2023-03-26T22:00:28.209Z,61.17
2023-03-26T22:03:21.855Z,61.18
2023-03-26T22:06:02.662Z,60.39
2023-03-26T22:08:41.704Z,57.81
2023-03-26T22:11:11.045Z,55.66
2023-03-26T22:13:39.355Z,56.41
2023-03-26T22:16:09.068Z,57.47
2023-03-26T22:18:36.002Z,58.86
2023-03-26T22:21:02.887Z,60.51
2023-03-26T22:23:36.639Z,64.45
2023-03-26T22:26:05.071Z,69.40
2023-03-26T22:28:32.295Z,69.01
2023-03-26T22:30:59.967Z,67.20
2023-03-26T22:33:27.274Z,65.11
2023-03-26T22:35:56.118Z,63.96
2023-03-26T22:38:23.297Z,62.96
2023-03-26T22:40:58.143Z,62.29
2023-03-26T22:43:25.224Z,62.08
2023-03-26T22:45:54.440Z,60.97
2023-03-26T22:48:23.935Z,61.17
2023-03-26T22:51:05.691Z,61.11
2023-03-26T22:53:32.906Z,60.61
2023-03-26T22:56:00.145Z,58.10
2023-03-26T22:58:27.495Z,56.46
2023-03-26T23:01:08.427Z,57.99
2023-03-26T23:03:37.157Z,59.39
2023-03-26T23:06:07.184Z,63.39
2023-03-26T23:08:36.471Z,67.65
2023-03-26T23:11:08.652Z,67.28
2023-03-26T23:13:35.531Z,66.04
2023-03-26T23:18:29.068Z,63.82
2023-03-26T23:20:57.862Z,62.83
2023-03-26T23:23:31.213Z,62.01
2023-03-26T23:26:00.378Z,61.18
2023-03-26T23:28:30.534Z,60.43
2023-03-26T23:30:57.568Z,58.32
2023-03-26T23:33:26.626Z,56.87
2023-03-26T23:36:00.198Z,57.96
2023-03-26T23:38:43.553Z,59.18
2023-03-26T23:41:15.447Z,60.84
2023-03-26T23:43:54.276Z,65.28
2023-03-26T23:46:24.175Z,68.23
2023-03-26T23:48:51.947Z,66.33
2023-03-26T23:51:24.291Z,64.20
2023-03-26T23:53:52.818Z,62.59
2023-03-26T23:56:20.490Z,61.37
2023-03-26T23:58:49.114Z,60.44
